sensor_id;sensor_type;location;lat;lon;timestamp;P1;durP1;ratioP1;P2;durP2;ratioP2
3726;SDS011;1879;45.876;12.300;2023-05-20T00:00:48;6.60;;;6.00;;
3726;SDS011;1879;45.876;12.300;2023-05-20T00:03:17;6.93;;;6.07;;
3726;SDS011;1879;45.876;12.300;2023-05-20T00:05:45;7.17;;;5.77;;
3726;SDS011;1879;45.876;12.300;2023-05-20T00:08:12;6.93;;;5.80;;
3726;SDS011;1879;45.876;12.300;2023-05-20T00:10:40;6.20;;;5.60;;
3726;SDS011;1879;45.876;12.300;2023-05-20T00:13:07;6.53;;;5.87;;
3726;SDS011;1879;45.876;12.300;2023-05-20T00:15:34;6.47;;;5.57;;
3726;SDS011;1879;45.876;12.300;2023-05-20T00:18:01;6.43;;;5.77;;
3726;SDS011;1879;45.876;12.300;2023-05-20T00:20:29;7.10;;;5.63;;
3726;SDS011;1879;45.876;12.300;2023-05-20T00:22:56;6.87;;;5.97;;
3726;SDS011;1879;45.876;12.300;2023-05-20T00:25:23;6.77;;;6.10;;
3726;SDS011;1879;45.876;12.300;2023-05-20T00:27:51;7.27;;;6.57;;
3726;SDS011;1879;45.876;12.300;2023-05-20T00:30:18;6.33;;;5.73;;
3726;SDS011;1879;45.876;12.300;2023-05-20T00:32:46;5.87;;;5.20;;
3726;SDS011;1879;45.876;12.300;2023-05-20T00:35:13;6.83;;;6.20;;
3726;SDS011;1879;45.876;12.300;2023-05-20T00:37:40;6.47;;;5.60;;
3726;SDS011;1879;45.876;12.300;2023-05-20T00:40:07;5.43;;;4.93;;
3726;SDS011;1879;45.876;12.300;2023-05-20T00:42:34;7.20;;;5.83;;
3726;SDS011;1879;45.876;12.300;2023-05-20T00:45:03;5.83;;;5.20;;
3726;SDS011;1879;45.876;12.300;2023-05-20T00:47:31;6.70;;;6.00;;
3726;SDS011;1879;45.876;12.300;2023-05-20T00:50:00;5.70;;;5.20;;
3726;SDS011;1879;45.876;12.300;2023-05-20T00:52:28;5.90;;;5.40;;
3726;SDS011;1879;45.876;12.300;2023-05-20T00:54:57;8.63;;;5.50;;
3726;SDS011;1879;45.876;12.300;2023-05-20T00:57:25;5.50;;;5.00;;
3726;SDS011;1879;45.876;12.300;2023-05-20T00:59:52;4.97;;;4.47;;
3726;SDS011;1879;45.876;12.300;2023-05-20T01:02:20;5.30;;;4.80;;
3726;SDS011;1879;45.876;12.300;2023-05-20T01:04:47;6.00;;;5.40;;
3726;SDS011;1879;45.876;12.300;2023-05-20T01:07:15;6.10;;;5.50;;
3726;SDS011;1879;45.876;12.300;2023-05-20T01:09:43;5.37;;;4.43;;
3726;SDS011;1879;45.876;12.300;2023-05-20T01:12:12;6.20;;;5.60;;
3726;SDS011;1879;45.876;12.300;2023-05-20T01:14:42;6.10;;;5.07;;
3726;SDS011;1879;45.876;12.300;2023-05-20T01:17:14;5.43;;;4.93;;
3726;SDS011;1879;45.876;12.300;2023-05-20T01:19:43;5.90;;;5.27;;
3726;SDS011;1879;45.876;12.300;2023-05-20T01:22:11;8.73;;;4.97;;
3726;SDS011;1879;45.876;12.300;2023-05-20T01:24:41;4.67;;;4.27;;
3726;SDS011;1879;45.876;12.300;2023-05-20T01:27:08;6.57;;;5.10;;
3726;SDS011;1879;45.876;12.300;2023-05-20T01:29:36;5.33;;;4.70;;
3726;SDS011;1879;45.876;12.300;2023-05-20T01:32:04;6.50;;;4.70;;
3726;SDS011;1879;45.876;12.300;2023-05-20T01:34:34;5.23;;;4.73;;
3726;SDS011;1879;45.876;12.300;2023-05-20T01:37:02;5.30;;;4.80;;
3726;SDS011;1879;45.876;12.300;2023-05-20T01:39:32;11.73;;;5.03;;
3726;SDS011;1879;45.876;12.300;2023-05-20T01:42:03;5.77;;;5.23;;
3726;SDS011;1879;45.876;12.300;2023-05-20T01:44:32;5.33;;;4.80;;
3726;SDS011;1879;45.876;12.300;2023-05-20T01:46:59;6.50;;;5.20;;
3726;SDS011;1879;45.876;12.300;2023-05-20T01:49:26;5.47;;;4.97;;
3726;SDS011;1879;45.876;12.300;2023-05-20T01:51:53;6.00;;;5.00;;
3726;SDS011;1879;45.876;12.300;2023-05-20T01:54:21;5.40;;;4.60;;
3726;SDS011;1879;45.876;12.300;2023-05-20T01:56:48;5.40;;;4.90;;
3726;SDS011;1879;45.876;12.300;2023-05-20T01:59:16;5.03;;;4.53;;
3726;SDS011;1879;45.876;12.300;2023-05-20T02:01:43;4.90;;;4.50;;
3726;SDS011;1879;45.876;12.300;2023-05-20T02:04:11;5.20;;;4.70;;
3726;SDS011;1879;45.876;12.300;2023-05-20T02:06:38;5.33;;;4.83;;
3726;SDS011;1879;45.876;12.300;2023-05-20T02:09:05;5.10;;;4.60;;
3726;SDS011;1879;45.876;12.300;2023-05-20T02:11:32;5.77;;;4.90;;
3726;SDS011;1879;45.876;12.300;2023-05-20T02:13:59;5.00;;;4.57;;
3726;SDS011;1879;45.876;12.300;2023-05-20T02:16:27;5.43;;;4.93;;
3726;SDS011;1879;45.876;12.300;2023-05-20T02:18:54;5.00;;;4.13;;
3726;SDS011;1879;45.876;12.300;2023-05-20T02:21:22;5.47;;;4.97;;
3726;SDS011;1879;45.876;12.300;2023-05-20T02:23:49;4.77;;;4.30;;
3726;SDS011;1879;45.876;12.300;2023-05-20T02:26:16;5.10;;;4.60;;
3726;SDS011;1879;45.876;12.300;2023-05-20T02:28:44;4.83;;;4.37;;
3726;SDS011;1879;45.876;12.300;2023-05-20T02:31:14;6.23;;;5.10;;
3726;SDS011;1879;45.876;12.300;2023-05-20T02:33:43;5.80;;;4.90;;
3726;SDS011;1879;45.876;12.300;2023-05-20T02:36:10;4.10;;;3.70;;
3726;SDS011;1879;45.876;12.300;2023-05-20T02:38:37;5.73;;;4.70;;
3726;SDS011;1879;45.876;12.300;2023-05-20T02:41:04;5.23;;;4.70;;
3726;SDS011;1879;45.876;12.300;2023-05-20T02:43:32;4.67;;;4.27;;
3726;SDS011;1879;45.876;12.300;2023-05-20T02:46:00;5.20;;;4.70;;
3726;SDS011;1879;45.876;12.300;2023-05-20T02:48:27;5.20;;;4.70;;
3726;SDS011;1879;45.876;12.300;2023-05-20T02:50:56;6.90;;;4.47;;
3726;SDS011;1879;45.876;12.300;2023-05-20T02:53:24;4.63;;;4.13;;
3726;SDS011;1879;45.876;12.300;2023-05-20T02:55:51;4.97;;;4.47;;
3726;SDS011;1879;45.876;12.300;2023-05-20T02:58:18;5.37;;;4.50;;
3726;SDS011;1879;45.876;12.300;2023-05-20T03:00:50;6.07;;;4.63;;
3726;SDS011;1879;45.876;12.300;2023-05-20T03:03:17;4.93;;;4.47;;
3726;SDS011;1879;45.876;12.300;2023-05-20T03:05:44;5.07;;;4.00;;
3726;SDS011;1879;45.876;12.300;2023-05-20T03:08:12;5.37;;;4.87;;
3726;SDS011;1879;45.876;12.300;2023-05-20T03:10:40;4.63;;;4.13;;
3726;SDS011;1879;45.876;12.300;2023-05-20T03:13:07;4.90;;;4.40;;
3726;SDS011;1879;45.876;12.300;2023-05-20T03:15:35;4.73;;;4.10;;
3726;SDS011;1879;45.876;12.300;2023-05-20T03:18:02;5.33;;;4.83;;
3726;SDS011;1879;45.876;12.300;2023-05-20T03:20:30;4.63;;;4.23;;
3726;SDS011;1879;45.876;12.300;2023-05-20T03:22:57;4.90;;;4.50;;
3726;SDS011;1879;45.876;12.300;2023-05-20T03:25:26;5.60;;;5.00;;
3726;SDS011;1879;45.876;12.300;2023-05-20T03:27:53;4.90;;;4.40;;
3726;SDS011;1879;45.876;12.300;2023-05-20T03:30:22;4.50;;;4.10;;
3726;SDS011;1879;45.876;12.300;2023-05-20T03:32:50;4.60;;;4.20;;
3726;SDS011;1879;45.876;12.300;2023-05-20T03:35:22;4.43;;;4.03;;
3726;SDS011;1879;45.876;12.300;2023-05-20T03:37:49;4.90;;;4.40;;
3726;SDS011;1879;45.876;12.300;2023-05-20T03:40:17;5.30;;;4.80;;
3726;SDS011;1879;45.876;12.300;2023-05-20T03:42:46;5.20;;;4.70;;
3726;SDS011;1879;45.876;12.300;2023-05-20T03:45:15;5.80;;;5.00;;
3726;SDS011;1879;45.876;12.300;2023-05-20T03:47:42;5.67;;;5.07;;
3726;SDS011;1879;45.876;12.300;2023-05-20T03:50:09;5.30;;;4.80;;
3726;SDS011;1879;45.876;12.300;2023-05-20T03:52:36;4.90;;;4.40;;
3726;SDS011;1879;45.876;12.300;2023-05-20T03:55:05;7.03;;;4.47;;
3726;SDS011;1879;45.876;12.300;2023-05-20T03:57:33;4.40;;;4.00;;
3726;SDS011;1879;45.876;12.300;2023-05-20T04:00:02;6.30;;;4.73;;
3726;SDS011;1879;45.876;12.300;2023-05-20T04:02:34;5.37;;;4.60;;
3726;SDS011;1879;45.876;12.300;2023-05-20T04:05:02;4.37;;;3.97;;
3726;SDS011;1879;45.876;12.300;2023-05-20T04:07:32;4.93;;;4.40;;
3726;SDS011;1879;45.876;12.300;2023-05-20T04:10:00;4.97;;;4.40;;
3726;SDS011;1879;45.876;12.300;2023-05-20T04:12:28;4.93;;;4.43;;
3726;SDS011;1879;45.876;12.300;2023-05-20T04:14:56;4.60;;;3.70;;
3726;SDS011;1879;45.876;12.300;2023-05-20T04:17:26;4.70;;;4.07;;
3726;SDS011;1879;45.876;12.300;2023-05-20T04:19:55;5.17;;;4.67;;
3726;SDS011;1879;45.876;12.300;2023-05-20T04:22:23;5.40;;;4.90;;
3726;SDS011;1879;45.876;12.300;2023-05-20T04:24:50;5.20;;;4.70;;
3726;SDS011;1879;45.876;12.300;2023-05-20T04:27:17;5.37;;;4.87;;
3726;SDS011;1879;45.876;12.300;2023-05-20T04:29:45;4.93;;;4.43;;
3726;SDS011;1879;45.876;12.300;2023-05-20T04:32:12;4.83;;;4.33;;
3726;SDS011;1879;45.876;12.300;2023-05-20T04:34:40;5.77;;;5.23;;
3726;SDS011;1879;45.876;12.300;2023-05-20T04:37:09;4.27;;;3.87;;
3726;SDS011;1879;45.876;12.300;2023-05-20T04:39:36;4.40;;;4.00;;
3726;SDS011;1879;45.876;12.300;2023-05-20T04:42:03;5.93;;;4.10;;
3726;SDS011;1879;45.876;12.300;2023-05-20T04:44:30;5.20;;;4.70;;
3726;SDS011;1879;45.876;12.300;2023-05-20T04:46:58;8.23;;;4.70;;
3726;SDS011;1879;45.876;12.300;2023-05-20T04:49:25;5.00;;;4.00;;
3726;SDS011;1879;45.876;12.300;2023-05-20T04:51:54;4.33;;;3.93;;
3726;SDS011;1879;45.876;12.300;2023-05-20T04:54:21;6.40;;;4.90;;
3726;SDS011;1879;45.876;12.300;2023-05-20T04:56:49;4.70;;;4.30;;
3726;SDS011;1879;45.876;12.300;2023-05-20T04:59:16;4.10;;;3.70;;
3726;SDS011;1879;45.876;12.300;2023-05-20T05:01:43;4.87;;;4.40;;
3726;SDS011;1879;45.876;12.300;2023-05-20T05:04:10;4.50;;;4.10;;
3726;SDS011;1879;45.876;12.300;2023-05-20T05:06:37;4.80;;;4.40;;
3726;SDS011;1879;45.876;12.300;2023-05-20T05:09:05;4.90;;;4.40;;
3726;SDS011;1879;45.876;12.300;2023-05-20T05:11:33;5.07;;;4.57;;
3726;SDS011;1879;45.876;12.300;2023-05-20T05:14:00;6.70;;;4.50;;
3726;SDS011;1879;45.876;12.300;2023-05-20T05:16:27;5.13;;;4.57;;
3726;SDS011;1879;45.876;12.300;2023-05-20T05:18:54;5.80;;;5.10;;
3726;SDS011;1879;45.876;12.300;2023-05-20T05:21:21;5.40;;;4.90;;
3726;SDS011;1879;45.876;12.300;2023-05-20T05:23:48;5.67;;;5.20;;
3726;SDS011;1879;45.876;12.300;2023-05-20T05:26:16;5.10;;;4.53;;
3726;SDS011;1879;45.876;12.300;2023-05-20T05:28:43;4.50;;;4.10;;
3726;SDS011;1879;45.876;12.300;2023-05-20T05:31:10;4.67;;;4.27;;
3726;SDS011;1879;45.876;12.300;2023-05-20T05:33:37;5.60;;;5.10;;
3726;SDS011;1879;45.876;12.300;2023-05-20T05:36:04;4.93;;;4.43;;
3726;SDS011;1879;45.876;12.300;2023-05-20T05:38:31;8.57;;;7.80;;
3726;SDS011;1879;45.876;12.300;2023-05-20T05:40:58;6.27;;;5.20;;
3726;SDS011;1879;45.876;12.300;2023-05-20T05:43:27;5.30;;;4.80;;
3726;SDS011;1879;45.876;12.300;2023-05-20T05:45:53;5.57;;;5.07;;
3726;SDS011;1879;45.876;12.300;2023-05-20T05:48:22;6.13;;;4.73;;
3726;SDS011;1879;45.876;12.300;2023-05-20T05:50:49;7.93;;;5.40;;
3726;SDS011;1879;45.876;12.300;2023-05-20T05:53:16;5.80;;;5.30;;
3726;SDS011;1879;45.876;12.300;2023-05-20T05:55:44;7.30;;;5.60;;
3726;SDS011;1879;45.876;12.300;2023-05-20T05:58:11;5.67;;;4.90;;
3726;SDS011;1879;45.876;12.300;2023-05-20T06:00:39;5.00;;;4.50;;
3726;SDS011;1879;45.876;12.300;2023-05-20T06:03:06;5.20;;;4.73;;
3726;SDS011;1879;45.876;12.300;2023-05-20T06:05:33;7.80;;;4.90;;
3726;SDS011;1879;45.876;12.300;2023-05-20T06:08:00;5.37;;;4.80;;
3726;SDS011;1879;45.876;12.300;2023-05-20T06:10:27;5.60;;;5.10;;
3726;SDS011;1879;45.876;12.300;2023-05-20T06:12:54;6.70;;;5.97;;
3726;SDS011;1879;45.876;12.300;2023-05-20T06:15:21;5.10;;;4.70;;
3726;SDS011;1879;45.876;12.300;2023-05-20T06:17:49;5.60;;;5.10;;
3726;SDS011;1879;45.876;12.300;2023-05-20T06:20:16;5.80;;;5.20;;
3726;SDS011;1879;45.876;12.300;2023-05-20T06:22:43;6.13;;;4.97;;
3726;SDS011;1879;45.876;12.300;2023-05-20T06:25:10;6.30;;;5.20;;
3726;SDS011;1879;45.876;12.300;2023-05-20T06:27:37;6.10;;;5.00;;
3726;SDS011;1879;45.876;12.300;2023-05-20T06:30:05;5.13;;;4.63;;
3726;SDS011;1879;45.876;12.300;2023-05-20T06:32:33;5.63;;;5.17;;
3726;SDS011;1879;45.876;12.300;2023-05-20T06:35:01;5.30;;;4.80;;
3726;SDS011;1879;45.876;12.300;2023-05-20T06:37:28;5.50;;;5.00;;
3726;SDS011;1879;45.876;12.300;2023-05-20T06:39:55;4.83;;;4.37;;
3726;SDS011;1879;45.876;12.300;2023-05-20T06:42:22;5.60;;;5.10;;
3726;SDS011;1879;45.876;12.300;2023-05-20T06:44:50;5.50;;;4.80;;
3726;SDS011;1879;45.876;12.300;2023-05-20T06:47:17;5.20;;;4.13;;
3726;SDS011;1879;45.876;12.300;2023-05-20T06:49:44;6.93;;;4.90;;
3726;SDS011;1879;45.876;12.300;2023-05-20T06:52:13;5.63;;;5.03;;
3726;SDS011;1879;45.876;12.300;2023-05-20T06:54:40;6.13;;;4.67;;
3726;SDS011;1879;45.876;12.300;2023-05-20T06:57:07;5.20;;;4.70;;
3726;SDS011;1879;45.876;12.300;2023-05-20T06:59:35;5.90;;;5.33;;
3726;SDS011;1879;45.876;12.300;2023-05-20T07:02:02;5.33;;;4.43;;
3726;SDS011;1879;45.876;12.300;2023-05-20T07:04:30;5.30;;;4.80;;
3726;SDS011;1879;45.876;12.300;2023-05-20T07:06:57;6.47;;;4.70;;
3726;SDS011;1879;45.876;12.300;2023-05-20T07:09:26;5.20;;;4.70;;
3726;SDS011;1879;45.876;12.300;2023-05-20T07:11:53;5.37;;;4.90;;
3726;SDS011;1879;45.876;12.300;2023-05-20T07:14:20;5.27;;;4.77;;
3726;SDS011;1879;45.876;12.300;2023-05-20T07:16:47;6.40;;;5.67;;
3726;SDS011;1879;45.876;12.300;2023-05-20T07:19:14;5.23;;;4.73;;
3726;SDS011;1879;45.876;12.300;2023-05-20T07:21:41;6.20;;;5.50;;
3726;SDS011;1879;45.876;12.300;2023-05-20T07:24:08;5.17;;;4.67;;
3726;SDS011;1879;45.876;12.300;2023-05-20T07:26:36;7.50;;;5.03;;
3726;SDS011;1879;45.876;12.300;2023-05-20T07:29:03;5.07;;;4.60;;
3726;SDS011;1879;45.876;12.300;2023-05-20T07:31:30;6.23;;;5.63;;
3726;SDS011;1879;45.876;12.300;2023-05-20T07:33:57;7.97;;;5.67;;
3726;SDS011;1879;45.876;12.300;2023-05-20T07:36:25;8.13;;;6.30;;
3726;SDS011;1879;45.876;12.300;2023-05-20T07:38:53;7.30;;;6.10;;
3726;SDS011;1879;45.876;12.300;2023-05-20T07:41:20;5.67;;;5.07;;
3726;SDS011;1879;45.876;12.300;2023-05-20T07:43:48;6.03;;;5.20;;
3726;SDS011;1879;45.876;12.300;2023-05-20T07:46:15;6.10;;;5.50;;
3726;SDS011;1879;45.876;12.300;2023-05-20T07:48:42;5.73;;;5.23;;
3726;SDS011;1879;45.876;12.300;2023-05-20T07:51:10;6.77;;;6.10;;
3726;SDS011;1879;45.876;12.300;2023-05-20T07:53:37;7.50;;;5.13;;
3726;SDS011;1879;45.876;12.300;2023-05-20T07:56:04;6.10;;;5.50;;
3726;SDS011;1879;45.876;12.300;2023-05-20T07:58:31;6.27;;;5.67;;
3726;SDS011;1879;45.876;12.300;2023-05-20T08:01:00;8.10;;;5.93;;
3726;SDS011;1879;45.876;12.300;2023-05-20T08:03:27;5.73;;;5.17;;
3726;SDS011;1879;45.876;12.300;2023-05-20T08:05:54;6.23;;;5.63;;
3726;SDS011;1879;45.876;12.300;2023-05-20T08:08:21;6.20;;;5.30;;
3726;SDS011;1879;45.876;12.300;2023-05-20T08:10:49;5.70;;;5.27;;
3726;SDS011;1879;45.876;12.300;2023-05-20T08:13:16;6.40;;;5.83;;
3726;SDS011;1879;45.876;12.300;2023-05-20T08:15:43;6.50;;;5.90;;
3726;SDS011;1879;45.876;12.300;2023-05-20T08:18:14;6.30;;;5.80;;
3726;SDS011;1879;45.876;12.300;2023-05-20T08:20:42;6.93;;;6.23;;
3726;SDS011;1879;45.876;12.300;2023-05-20T08:23:09;6.53;;;5.93;;
3726;SDS011;1879;45.876;12.300;2023-05-20T08:25:36;6.10;;;5.50;;
3726;SDS011;1879;45.876;12.300;2023-05-20T08:28:03;6.37;;;5.77;;
3726;SDS011;1879;45.876;12.300;2023-05-20T08:30:31;7.23;;;6.40;;
3726;SDS011;1879;45.876;12.300;2023-05-20T08:32:59;6.80;;;6.20;;
3726;SDS011;1879;45.876;12.300;2023-05-20T08:35:28;6.90;;;6.30;;
3726;SDS011;1879;45.876;12.300;2023-05-20T08:37:55;6.30;;;5.70;;
3726;SDS011;1879;45.876;12.300;2023-05-20T08:40:22;5.93;;;5.37;;
3726;SDS011;1879;45.876;12.300;2023-05-20T08:42:49;7.47;;;6.77;;
3726;SDS011;1879;45.876;12.300;2023-05-20T08:45:18;6.50;;;5.90;;
3726;SDS011;1879;45.876;12.300;2023-05-20T08:47:49;9.13;;;6.03;;
3726;SDS011;1879;45.876;12.300;2023-05-20T08:50:17;7.63;;;6.70;;
3726;SDS011;1879;45.876;12.300;2023-05-20T08:52:46;6.67;;;6.07;;
3726;SDS011;1879;45.876;12.300;2023-05-20T08:55:15;8.13;;;7.33;;
3726;SDS011;1879;45.876;12.300;2023-05-20T08:57:46;6.60;;;6.00;;
3726;SDS011;1879;45.876;12.300;2023-05-20T09:00:14;8.63;;;6.57;;
3726;SDS011;1879;45.876;12.300;2023-05-20T09:02:43;4.80;;;3.50;;
3726;SDS011;1879;45.876;12.300;2023-05-20T09:05:11;6.37;;;5.77;;
3726;SDS011;1879;45.876;12.300;2023-05-20T09:07:38;5.70;;;5.20;;
3726;SDS011;1879;45.876;12.300;2023-05-20T09:10:08;6.40;;;5.73;;
3726;SDS011;1879;45.876;12.300;2023-05-20T09:12:36;6.57;;;5.97;;
3726;SDS011;1879;45.876;12.300;2023-05-20T09:15:04;7.00;;;6.33;;
3726;SDS011;1879;45.876;12.300;2023-05-20T09:17:33;6.93;;;6.33;;
3726;SDS011;1879;45.876;12.300;2023-05-20T09:20:00;8.23;;;6.87;;
3726;SDS011;1879;45.876;12.300;2023-05-20T09:22:28;6.50;;;5.90;;
3726;SDS011;1879;45.876;12.300;2023-05-20T09:24:55;7.10;;;5.97;;
3726;SDS011;1879;45.876;12.300;2023-05-20T09:27:24;7.20;;;5.60;;
3726;SDS011;1879;45.876;12.300;2023-05-20T09:29:51;7.83;;;7.13;;
3726;SDS011;1879;45.876;12.300;2023-05-20T09:32:19;7.93;;;7.13;;
3726;SDS011;1879;45.876;12.300;2023-05-20T09:34:50;7.60;;;6.90;;
3726;SDS011;1879;45.876;12.300;2023-05-20T09:37:18;8.17;;;7.37;;
3726;SDS011;1879;45.876;12.300;2023-05-20T09:39:49;10.00;;;8.37;;
3726;SDS011;1879;45.876;12.300;2023-05-20T09:42:30;7.80;;;6.77;;
3726;SDS011;1879;45.876;12.300;2023-05-20T09:45:03;8.67;;;7.77;;
3726;SDS011;1879;45.876;12.300;2023-05-20T09:47:33;7.90;;;7.00;;
3726;SDS011;1879;45.876;12.300;2023-05-20T09:50:01;7.20;;;6.60;;
3726;SDS011;1879;45.876;12.300;2023-05-20T09:52:29;8.80;;;6.70;;
3726;SDS011;1879;45.876;12.300;2023-05-20T09:54:56;9.10;;;7.17;;
3726;SDS011;1879;45.876;12.300;2023-05-20T09:57:25;8.00;;;7.30;;
3726;SDS011;1879;45.876;12.300;2023-05-20T09:59:54;10.90;;;8.03;;
3726;SDS011;1879;45.876;12.300;2023-05-20T10:02:21;7.27;;;6.53;;
3726;SDS011;1879;45.876;12.300;2023-05-20T10:04:48;8.77;;;7.90;;
3726;SDS011;1879;45.876;12.300;2023-05-20T10:07:21;8.73;;;7.90;;
3726;SDS011;1879;45.876;12.300;2023-05-20T10:10:20;8.90;;;8.17;;
3726;SDS011;1879;45.876;12.300;2023-05-20T10:13:03;8.00;;;7.30;;
3726;SDS011;1879;45.876;12.300;2023-05-20T10:15:43;8.23;;;7.40;;
3726;SDS011;1879;45.876;12.300;2023-05-20T10:18:20;8.20;;;7.50;;
3726;SDS011;1879;45.876;12.300;2023-05-20T10:20:55;8.80;;;8.00;;
3726;SDS011;1879;45.876;12.300;2023-05-20T10:23:22;10.53;;;8.80;;
3726;SDS011;1879;45.876;12.300;2023-05-20T10:25:50;9.73;;;8.43;;
3726;SDS011;1879;45.876;12.300;2023-05-20T10:28:26;9.33;;;8.37;;
3726;SDS011;1879;45.876;12.300;2023-05-20T10:30:56;8.63;;;7.83;;
3726;SDS011;1879;45.876;12.300;2023-05-20T10:33:24;9.73;;;8.70;;
3726;SDS011;1879;45.876;12.300;2023-05-20T10:35:52;10.10;;;9.00;;
3726;SDS011;1879;45.876;12.300;2023-05-20T10:38:20;9.53;;;8.63;;
3726;SDS011;1879;45.876;12.300;2023-05-20T10:40:46;10.07;;;9.00;;
3726;SDS011;1879;45.876;12.300;2023-05-20T10:43:14;10.27;;;9.20;;
3726;SDS011;1879;45.876;12.300;2023-05-20T10:45:46;10.77;;;9.87;;
3726;SDS011;1879;45.876;12.300;2023-05-20T10:48:24;8.67;;;7.87;;
3726;SDS011;1879;45.876;12.300;2023-05-20T10:50:55;9.93;;;9.03;;
3726;SDS011;1879;45.876;12.300;2023-05-20T10:53:25;10.63;;;9.73;;
3726;SDS011;1879;45.876;12.300;2023-05-20T10:55:53;13.33;;;10.73;;
3726;SDS011;1879;45.876;12.300;2023-05-20T10:58:20;11.40;;;10.07;;
3726;SDS011;1879;45.876;12.300;2023-05-20T11:00:48;11.70;;;10.60;;
3726;SDS011;1879;45.876;12.300;2023-05-20T11:03:18;11.43;;;10.43;;
3726;SDS011;1879;45.876;12.300;2023-05-20T11:05:49;13.70;;;10.03;;
3726;SDS011;1879;45.876;12.300;2023-05-20T11:08:17;13.50;;;10.17;;
3726;SDS011;1879;45.876;12.300;2023-05-20T11:10:45;10.53;;;9.50;;
3726;SDS011;1879;45.876;12.300;2023-05-20T11:13:13;13.60;;;10.70;;
3726;SDS011;1879;45.876;12.300;2023-05-20T11:15:40;11.33;;;10.27;;
3726;SDS011;1879;45.876;12.300;2023-05-20T11:18:09;12.90;;;10.47;;
3726;SDS011;1879;45.876;12.300;2023-05-20T11:20:39;13.10;;;10.30;;
3726;SDS011;1879;45.876;12.300;2023-05-20T11:23:10;11.73;;;10.40;;
3726;SDS011;1879;45.876;12.300;2023-05-20T11:25:40;11.30;;;10.20;;
3726;SDS011;1879;45.876;12.300;2023-05-20T11:28:08;11.33;;;10.30;;
3726;SDS011;1879;45.876;12.300;2023-05-20T11:30:37;10.67;;;9.67;;
3726;SDS011;1879;45.876;12.300;2023-05-20T11:33:05;12.87;;;10.40;;
3726;SDS011;1879;45.876;12.300;2023-05-20T11:35:32;11.37;;;10.37;;
3726;SDS011;1879;45.876;12.300;2023-05-20T11:38:02;11.20;;;10.10;;
3726;SDS011;1879;45.876;12.300;2023-05-20T11:40:32;13.30;;;10.10;;
3726;SDS011;1879;45.876;12.300;2023-05-20T11:43:00;15.33;;;10.90;;
3726;SDS011;1879;45.876;12.300;2023-05-20T11:45:37;10.10;;;9.27;;
3726;SDS011;1879;45.876;12.300;2023-05-20T11:48:05;10.63;;;9.53;;
3726;SDS011;1879;45.876;12.300;2023-05-20T11:50:33;10.70;;;9.70;;
3726;SDS011;1879;45.876;12.300;2023-05-20T11:53:03;10.20;;;9.30;;
3726;SDS011;1879;45.876;12.300;2023-05-20T11:55:32;10.50;;;9.50;;
3726;SDS011;1879;45.876;12.300;2023-05-20T11:58:00;10.17;;;9.13;;
3726;SDS011;1879;45.876;12.300;2023-05-20T12:00:28;11.87;;;9.43;;
3726;SDS011;1879;45.876;12.300;2023-05-20T12:02:55;10.07;;;9.17;;
3726;SDS011;1879;45.876;12.300;2023-05-20T12:05:22;10.50;;;9.50;;
3726;SDS011;1879;45.876;12.300;2023-05-20T12:07:49;10.97;;;9.87;;
3726;SDS011;1879;45.876;12.300;2023-05-20T12:10:16;10.13;;;9.20;;
3726;SDS011;1879;45.876;12.300;2023-05-20T12:12:44;9.83;;;8.93;;
3726;SDS011;1879;45.876;12.300;2023-05-20T12:15:11;11.83;;;9.23;;
3726;SDS011;1879;45.876;12.300;2023-05-20T12:17:45;10.07;;;9.07;;
3726;SDS011;1879;45.876;12.300;2023-05-20T12:20:14;10.40;;;9.30;;
3726;SDS011;1879;45.876;12.300;2023-05-20T12:22:42;10.70;;;8.90;;
3726;SDS011;1879;45.876;12.300;2023-05-20T12:25:10;9.80;;;8.90;;
3726;SDS011;1879;45.876;12.300;2023-05-20T12:27:38;10.70;;;9.30;;
3726;SDS011;1879;45.876;12.300;2023-05-20T12:30:08;10.47;;;9.23;;
3726;SDS011;1879;45.876;12.300;2023-05-20T12:32:36;9.67;;;8.77;;
3726;SDS011;1879;45.876;12.300;2023-05-20T12:35:03;10.27;;;9.37;;
3726;SDS011;1879;45.876;12.300;2023-05-20T12:37:31;9.67;;;8.67;;
3726;SDS011;1879;45.876;12.300;2023-05-20T12:39:58;10.30;;;9.20;;
3726;SDS011;1879;45.876;12.300;2023-05-20T12:42:25;9.83;;;8.93;;
3726;SDS011;1879;45.876;12.300;2023-05-20T12:44:53;13.73;;;10.17;;
3726;SDS011;1879;45.876;12.300;2023-05-20T12:47:21;11.80;;;9.87;;
3726;SDS011;1879;45.876;12.300;2023-05-20T12:49:48;10.10;;;9.10;;
3726;SDS011;1879;45.876;12.300;2023-05-20T12:52:15;15.83;;;10.60;;
3726;SDS011;1879;45.876;12.300;2023-05-20T12:54:42;11.63;;;10.53;;
3726;SDS011;1879;45.876;12.300;2023-05-20T12:57:09;9.97;;;9.03;;
3726;SDS011;1879;45.876;12.300;2023-05-20T12:59:36;10.00;;;9.00;;
3726;SDS011;1879;45.876;12.300;2023-05-20T13:02:03;10.00;;;9.10;;
3726;SDS011;1879;45.876;12.300;2023-05-20T13:04:35;10.50;;;9.50;;
3726;SDS011;1879;45.876;12.300;2023-05-20T13:07:02;10.93;;;9.87;;
3726;SDS011;1879;45.876;12.300;2023-05-20T13:09:29;10.63;;;9.47;;
3726;SDS011;1879;45.876;12.300;2023-05-20T13:11:56;10.10;;;9.20;;
3726;SDS011;1879;45.876;12.300;2023-05-20T13:14:23;10.83;;;9.70;;
3726;SDS011;1879;45.876;12.300;2023-05-20T13:16:50;11.47;;;10.03;;
3726;SDS011;1879;45.876;12.300;2023-05-20T13:19:19;11.00;;;10.00;;
3726;SDS011;1879;45.876;12.300;2023-05-20T13:21:48;11.47;;;10.37;;
3726;SDS011;1879;45.876;12.300;2023-05-20T13:24:18;10.87;;;9.87;;
3726;SDS011;1879;45.876;12.300;2023-05-20T13:26:45;10.70;;;9.70;;
3726;SDS011;1879;45.876;12.300;2023-05-20T13:29:12;10.33;;;9.33;;
3726;SDS011;1879;45.876;12.300;2023-05-20T13:31:40;9.80;;;8.90;;
3726;SDS011;1879;45.876;12.300;2023-05-20T13:34:07;10.83;;;9.73;;
3726;SDS011;1879;45.876;12.300;2023-05-20T13:36:35;9.53;;;8.63;;
3726;SDS011;1879;45.876;12.300;2023-05-20T13:39:03;9.67;;;8.80;;
3726;SDS011;1879;45.876;12.300;2023-05-20T13:41:30;11.37;;;10.07;;
3726;SDS011;1879;45.876;12.300;2023-05-20T13:43:57;10.20;;;9.30;;
3726;SDS011;1879;45.876;12.300;2023-05-20T13:46:24;10.90;;;9.33;;
3726;SDS011;1879;45.876;12.300;2023-05-20T13:48:51;9.60;;;8.70;;
3726;SDS011;1879;45.876;12.300;2023-05-20T13:51:18;10.20;;;9.30;;
3726;SDS011;1879;45.876;12.300;2023-05-20T13:53:45;10.37;;;9.27;;
3726;SDS011;1879;45.876;12.300;2023-05-20T13:56:13;9.30;;;8.50;;
3726;SDS011;1879;45.876;12.300;2023-05-20T13:58:40;10.03;;;8.47;;
3726;SDS011;1879;45.876;12.300;2023-05-20T14:01:07;10.40;;;9.50;;
3726;SDS011;1879;45.876;12.300;2023-05-20T14:03:36;12.00;;;9.60;;
3726;SDS011;1879;45.876;12.300;2023-05-20T14:06:04;9.50;;;8.47;;
3726;SDS011;1879;45.876;12.300;2023-05-20T14:08:31;10.23;;;9.33;;
3726;SDS011;1879;45.876;12.300;2023-05-20T14:10:58;10.47;;;9.00;;
3726;SDS011;1879;45.876;12.300;2023-05-20T14:13:27;11.40;;;10.40;;
3726;SDS011;1879;45.876;12.300;2023-05-20T14:15:54;10.20;;;9.20;;
3726;SDS011;1879;45.876;12.300;2023-05-20T14:18:21;10.00;;;9.00;;
3726;SDS011;1879;45.876;12.300;2023-05-20T14:20:48;12.23;;;11.03;;
3726;SDS011;1879;45.876;12.300;2023-05-20T14:23:15;12.00;;;10.87;;
3726;SDS011;1879;45.876;12.300;2023-05-20T14:25:42;11.80;;;10.80;;
3726;SDS011;1879;45.876;12.300;2023-05-20T14:28:09;11.77;;;10.67;;
3726;SDS011;1879;45.876;12.300;2023-05-20T14:30:37;13.00;;;10.50;;
3726;SDS011;1879;45.876;12.300;2023-05-20T14:33:04;14.60;;;11.90;;
3726;SDS011;1879;45.876;12.300;2023-05-20T14:35:31;12.67;;;11.40;;
3726;SDS011;1879;45.876;12.300;2023-05-20T14:37:58;13.00;;;11.90;;
3726;SDS011;1879;45.876;12.300;2023-05-20T14:40:25;14.03;;;12.73;;
3726;SDS011;1879;45.876;12.300;2023-05-20T14:42:52;12.80;;;11.60;;
3726;SDS011;1879;45.876;12.300;2023-05-20T14:45:19;9.50;;;8.60;;
3726;SDS011;1879;45.876;12.300;2023-05-20T14:47:47;12.63;;;10.50;;
3726;SDS011;1879;45.876;12.300;2023-05-20T14:50:14;9.27;;;8.43;;
3726;SDS011;1879;45.876;12.300;2023-05-20T14:52:41;9.60;;;8.60;;
3726;SDS011;1879;45.876;12.300;2023-05-20T14:55:08;10.60;;;9.50;;
3726;SDS011;1879;45.876;12.300;2023-05-20T14:57:35;11.37;;;9.60;;
3726;SDS011;1879;45.876;12.300;2023-05-20T15:00:02;9.40;;;8.50;;